Townville, SC (29689)

4:27 AM EDT on August 26, 2016 (GMT -0400)
RIVERPOINTE | | Change Station

Elev 712 ft 34.54 °N, 82.79 °W | Updated 5 seconds ago

Clear
Clear
75.3 °F
Feels Like 74 °F
N
0.0
Wind Variable Wind from West

Today
High -- | Low -- °F
--% Chance of Precip.
Yesterday
High -- | Low -- °F
Precip. -- in
Pressure 30.10 in
Visibility 10.0 miles
Clouds Clear
Heat Index 74 °F
Dew Point 72 °F
Humidity 91%
Rainfall 0.00 in
Snow Depth Not available.
7:00 AM 8:04 PM
Last Quarter, 37% visible
METAR KCEU 260754Z AUTO 00000KT 10SM CLR 26/22 A3014 RMK AO2 SLP192 T02560222
Pressure 30.10 in
Visibility 10.0 miles
Clouds Clear
Heat Index 74 °F
Dew Point 72 °F
Humidity 91%
Rainfall 0.00 in
Snow Depth Not available.
7:00 AM 8:04 PM
Last Quarter, 37% visible
METAR KCEU 260754Z AUTO 00000KT 10SM CLR 26/22 A3014 RMK AO2 SLP192 T02560222

10-Day Weather Forecast

Almanac

Astronomy

Aug. 26, 2016 Rise Set
Actual Time
Civil Twilight
Nautical Twilight
Astronomical Twilight
Moon
Length of Visible Light
Length of Day
Tomorrow will be .
, % of the Moon is Illuminated

Today's Extremes

State Highs State Lows

Community

WunderPhotos

Upload Photos

1,935,062 photos uploaded!

WunderBlog® & News

Nearby

Air Quality

  Air Quality AQ Index Pollutant
Not available.

Snow Depth

Station Depth Elevation

Earthquake Activity

City Distance Mag. Time & Date
Minimum magnitude displayed is 2.5.

Coastal Water Temperatures

Place Temperature

Stations

Nearby Weather Stations

Station Location Temp. Windchill Dew Point Humidity Wind Precip. Elev Updated Type
                   

Watches & Warnings

There are currently no watches in effect.